Time;durP1;ratioP1;P1;durP2;ratioP2;P2;SDS_P1;SDS_P2;PMS_P1;PMS_P2;Temp;Humidity;BMP_temperature;BMP_pressure;BME280_temperature;BME280_humidity;BME280_pressure;Samples;Min_cycle;Max_cycle;Signal;HPM_P1;HPM_P2
2024/03/17 17:10:01;;;;;;;12.70;8.40;;;;;;;19.54;47.89;94043.31;5063027;27;20400;-62
2024/03/17 17:12:52;;;;;;;17.52;8.73;;;;;;;20.03;47.11;94051.31;4992417;28;20484;-62
2024/03/17 17:15:21;;;;;;;15.60;9.05;;;;;;;20.30;46.24;94038.53;4982544;28;20045;-63
2024/03/17 17:18:32;;;;;;;14.60;8.68;;;;;;;20.57;45.55;94048.88;4969148;28;20065;-63
2024/03/17 17:20:58;;;;;;;13.25;9.32;;;;;;;20.67;44.63;94052.06;4986734;28;20049;-67
2024/03/17 17:23:24;;;;;;;15.93;9.43;;;;;;;20.72;45.13;94049.03;4995533;28;20045;-67
2024/03/17 17:29:18;;;;;;;13.18;8.02;;;;;;;20.63;46.16;94056.66;4982350;28;20060;-67
2024/03/17 17:35:08;;;;;;;13.13;8.25;;;;;;;20.57;45.82;94062.41;4985495;28;20045;-68
2024/03/17 17:38:18;;;;;;;13.45;9.05;;;;;;;20.64;45.52;94060.91;5005399;28;20034;-70
2024/03/17 17:40:43;;;;;;;14.05;10.13;;;;;;;20.65;46.43;94059.75;4989569;28;20121;-69
2024/03/17 17:43:10;;;;;;;14.70;9.60;;;;;;;20.59;45.81;94057.38;4978701;28;20085;-69
2024/03/17 17:45:38;;;;;;;15.35;10.32;;;;;;;20.62;46.38;94055.09;4983348;28;20045;-67
2024/03/17 17:48:04;;;;;;;14.00;10.35;;;;;;;20.55;46.36;94061.19;4987862;23;20077;-67
2024/03/17 17:50:34;;;;;;;17.23;9.75;;;;;;;20.65;46.16;94057.84;4948217;28;20034;-66
2024/03/17 17:52:59;;;;;;;19.02;10.63;;;;;;;20.66;46.12;94066.72;4952746;28;20042;-68
2024/03/17 17:55:28;;;;;;;16.45;11.35;;;;;;;20.67;46.06;94068.28;4952071;28;20046;-68
2024/03/17 17:58:06;;;;;;;14.23;9.60;;;;;;;20.65;46.68;94065.16;4951951;28;20048;-65
2024/03/17 18:00:54;;;;;;;13.98;9.90;;;;;;;20.48;47.03;94063.84;4955475;28;20042;-65
2024/03/17 18:03:20;;;;;;;14.77;9.98;;;;;;;20.56;46.79;94073.56;4956075;28;20049;-65
2024/03/17 18:05:45;;;;;;;20.38;10.25;;;;;;;20.45;47.08;94070.75;4954268;28;20403;-65
2024/03/17 18:08:19;;;;;;;19.15;10.57;;;;;;;20.60;46.32;94074.38;4946877;28;20030;-65
2024/03/17 18:10:45;;;;;;;17.58;11.60;;;;;;;20.64;46.89;94079.81;4948435;28;20061;-65
2024/03/17 18:13:10;;;;;;;16.27;10.45;;;;;;;20.54;47.16;94071.22;4954678;28;20039;-66
2024/03/17 18:15:37;;;;;;;17.42;10.13;;;;;;;20.42;47.01;94076.91;4958081;28;20060;-66
2024/03/17 18:18:02;;;;;;;15.40;10.00;;;;;;;20.53;47.30;94072.38;4951746;28;20066;-65
2024/03/17 18:20:36;;;;;;;12.90;9.45;;;;;;;20.58;47.41;94074.75;4943365;28;20525;-64
2024/03/17 18:23:11;;;;;;;15.45;10.35;;;;;;;20.71;46.73;94077.19;4937008;28;20022;-65
2024/03/17 18:25:37;;;;;;;15.25;9.18;;;;;;;20.82;46.53;94081.56;4937994;28;20054;-64
2024/03/17 18:28:06;;;;;;;13.15;9.82;;;;;;;20.80;46.71;94081.16;4943578;28;20061;-65
2024/03/17 18:30:40;;;;;;;13.07;10.00;;;;;;;20.91;45.73;94081.28;4946217;28;20050;-65
2024/03/17 18:33:30;;;;;;;17.10;9.90;;;;;;;20.98;45.61;94078.66;4949979;28;20133;-65
2024/03/17 18:36:02;;;;;;;16.27;9.57;;;;;;;21.03;45.62;94083.72;4937591;28;20714;-67
2024/03/17 18:38:30;;;;;;;16.95;9.25;;;;;;;21.08;45.11;94077.97;4955170;28;20667;-65
2024/03/17 18:41:15;;;;;;;16.30;10.00;;;;;;;21.10;45.43;94086.50;4935689;28;20937;-65
2024/03/17 18:43:52;;;;;;;12.07;9.00;;;;;;;21.15;45.22;94088.84;4936575;28;20039;-66
2024/03/17 18:46:19;;;;;;;13.48;8.82;;;;;;;21.16;45.17;94087.72;4935456;28;20218;-66
2024/03/17 18:48:48;;;;;;;13.57;9.45;;;;;;;21.21;45.40;94092.78;4983776;23;20066;-66
2024/03/17 18:51:30;;;;;;;12.50;9.52;;;;;;;21.20;45.85;94096.63;4944053;28;20060;-66
2024/03/17 18:54:05;;;;;;;13.35;9.40;;;;;;;21.24;45.65;94096.66;4958474;28;20050;-65
2024/03/17 18:56:36;;;;;;;11.80;8.88;;;;;;;21.14;46.56;94100.03;4947574;28;20072;-66
2024/03/17 18:59:28;;;;;;;17.05;10.18;;;;;;;21.02;46.81;94095.69;4953226;28;20054;-66
2024/03/17 19:01:59;;;;;;;14.15;9.30;;;;;;;20.96;47.28;94097.97;4956039;28;20491;-66
2024/03/17 19:04:26;;;;;;;15.65;9.90;;;;;;;20.89;47.47;94097.09;4956995;28;20038;-67
2024/03/17 19:06:51;;;;;;;14.43;10.77;;;;;;;20.91;47.78;94097.50;4956930;28;20096;-67
2024/03/17 19:09:22;;;;;;;15.07;9.90;;;;;;;20.90;48.27;94096.72;4956240;28;20042;-67
2024/03/17 19:11:54;;;;;;;14.15;9.23;;;;;;;20.79;48.30;94076.13;4952908;28;20100;-67
2024/03/17 19:14:31;;;;;;;13.13;9.38;;;;;;;20.91;48.04;94101.00;4952343;28;20038;-66
2024/03/17 19:16:56;;;;;;;12.82;8.52;;;;;;;20.91;48.16;94100.22;4956053;28;20049;-66
2024/03/17 19:19:21;;;;;;;15.30;9.70;;;;;;;21.00;47.99;94098.75;4953740;28;20062;-66
2024/03/17 19:21:54;;;;;;;11.82;9.10;;;;;;;21.04;47.87;94093.38;4968865;28;20042;-64
2024/03/17 19:24:22;;;;;;;15.02;9.18;;;;;;;20.92;48.75;94085.56;4952048;28;20125;-65
2024/03/17 19:26:50;;;;;;;15.45;9.95;;;;;;;20.95;48.78;94092.91;4947036;28;20049;-65
2024/03/17 19:29:25;;;;;;;15.30;10.10;;;;;;;21.04;47.86;94087.97;4952336;28;20484;-66
2024/03/17 19:31:51;;;;;;;14.00;9.57;;;;;;;21.06;47.95;94088.41;4955940;28;20295;-68
2024/03/17 19:34:28;;;;;;;13.15;10.50;;;;;;;20.99;48.29;94091.00;4970681;28;20426;-67
2024/03/17 19:36:57;;;;;;;14.48;9.85;;;;;;;20.94;48.07;94067.03;4954223;28;20048;-65
2024/03/17 19:39:23;;;;;;;15.00;10.93;;;;;;;21.07;47.84;94081.06;4958924;28;20129;-65
2024/03/17 19:41:48;;;;;;;14.30;10.43;;;;;;;21.17;47.40;94083.09;4954414;28;21284;-65
2024/03/17 19:44:14;;;;;;;12.90;9.32;;;;;;;21.06;48.03;94085.69;4956021;28;20061;-65
2024/03/17 19:46:45;;;;;;;13.05;9.00;;;;;;;20.96;48.10;94075.56;4957525;28;20046;-64
2024/03/17 19:49:40;;;;;;;17.33;10.25;;;;;;;20.95;47.82;94084.81;4938522;23;20621;-64
2024/03/17 19:52:06;;;;;;;15.02;8.80;;;;;;;20.95;47.86;94082.09;4912306;28;20059;-65
2024/03/17 19:54:34;;;;;;;15.60;9.07;;;;;;;20.91;48.02;94084.78;4909217;28;20704;-65
2024/03/17 19:57:00;;;;;;;12.60;9.52;;;;;;;20.88;48.42;94087.44;4912387;28;20641;-65
2024/03/17 19:59:35;;;;;;;11.10;9.90;;;;;;;20.88;48.10;94082.03;4906380;28;20035;-66
2024/03/17 20:02:03;;;;;;;13.15;10.15;;;;;;;20.88;48.03;94073.91;4907203;29;20036;-66
2024/03/17 20:04:29;;;;;;;11.65;8.50;;;;;;;20.88;48.07;94084.72;4908777;28;20047;-65
2024/03/17 20:06:58;;;;;;;15.38;11.80;;;;;;;20.89;47.79;94086.28;4906932;28;20099;-66
2024/03/17 20:09:37;;;;;;;12.30;9.80;;;;;;;20.92;47.21;94086.31;4908565;28;20086;-66
2024/03/17 20:12:04;;;;;;;11.00;8.55;;;;;;;20.83;46.07;94085.03;4901347;28;20043;-65
2024/03/17 20:14:42;;;;;;;14.75;9.80;;;;;;;20.81;47.42;94084.63;4907305;28;20031;-66
2024/03/17 20:17:17;;;;;;;11.10;9.02;;;;;;;20.80;47.24;94083.06;4910400;29;20071;-66
2024/03/17 20:19:43;;;;;;;13.43;9.00;;;;;;;20.66;46.74;94069.44;4907028;28;20183;-65
2024/03/17 20:22:14;;;;;;;10.75;8.57;;;;;;;20.76;47.26;94074.94;4926046;28;20034;-65
2024/03/17 20:24:44;;;;;;;11.38;8.75;;;;;;;20.76;46.99;94071.47;4930324;28;20053;-65
2024/03/17 20:27:21;;;;;;;12.32;9.43;;;;;;;20.76;47.04;94082.28;4931951;28;20062;-65
2024/03/17 20:29:47;;;;;;;12.30;9.93;;;;;;;20.75;46.87;94080.72;4926037;28;20058;-65
2024/03/17 20:32:12;;;;;;;12.25;9.30;;;;;;;20.74;47.00;94074.53;4926948;28;20027;-65
2024/03/17 20:34:37;;;;;;;12.30;9.45;;;;;;;20.73;46.62;94074.91;4904663;28;20803;-65
2024/03/17 20:37:15;;;;;;;13.85;9.55;;;;;;;20.72;46.60;94076.06;4929809;28;20041;-65
2024/03/17 20:39:47;;;;;;;13.77;9.82;;;;;;;20.71;46.63;94069.88;4925014;28;20101;-66
2024/03/17 20:42:22;;;;;;;13.15;10.05;;;;;;;20.71;46.29;94075.28;4927739;28;20054;-66
2024/03/17 20:45:30;;;;;;;17.80;9.77;;;;;;;20.71;46.37;94069.09;4932171;28;20051;-65
2024/03/17 20:48:06;;;;;;;13.90;9.20;;;;;;;20.69;46.09;94071.38;4927878;28;20055;-65
2024/03/17 20:50:34;;;;;;;12.40;9.60;;;;;;;20.66;45.98;94074.81;4931285;28;20409;-65
2024/03/17 20:53:00;;;;;;;11.40;8.73;;;;;;;20.62;45.93;94069.38;4927912;28;20674;-65
2024/03/17 20:55:28;;;;;;;12.70;8.68;;;;;;;20.63;45.66;94064.78;4925510;28;20592;-65
2024/03/17 20:58:13;;;;;;;13.05;8.38;;;;;;;20.60;45.58;94068.97;4927351;28;20421;-65
2024/03/17 21:00:47;;;;;;;11.75;9.02;;;;;;;20.57;45.91;94070.50;4922818;28;20054;-65
2024/03/17 21:03:13;;;;;;;;;;;;;;;20.54;45.70;94065.81;4922099;28;20148;-67
2024/03/17 21:05:38;;;;;;;11.40;8.93;;;;;;;20.50;45.75;94064.22;4924691;28;19948;-65
2024/03/17 21:08:04;;;;;;;12.30;9.88;;;;;;;20.47;45.64;94057.66;4930091;28;20034;-66
2024/03/17 21:10:29;;;;;;;12.95;8.07;;;;;;;20.46;45.63;94064.19;4926579;28;20527;-65
2024/03/17 21:13:00;;;;;;;10.10;8.02;;;;;;;20.42;45.84;94066.09;4925012;28;20054;-65
2024/03/17 21:15:26;;;;;;;11.20;8.77;;;;;;;20.46;45.51;94060.72;4926525;28;20969;-64
2024/03/17 21:17:51;;;;;;;18.13;9.63;;;;;;;20.44;45.57;94055.66;4927305;28;20597;-66
2024/03/17 21:20:20;;;;;;;11.98;8.48;;;;;;;20.45;45.45;94046.44;4926536;28;20042;-65
2024/03/17 21:22:58;;;;;;;9.95;8.25;;;;;;;20.47;45.42;94051.47;4929609;28;20550;-66
2024/03/17 21:25:30;;;;;;;11.30;8.73;;;;;;;20.45;45.31;94043.72;4932704;28;20228;-65
2024/03/17 21:27:57;;;;;;;11.07;8.25;;;;;;;20.44;45.39;94046.78;4928313;28;20142;-65
2024/03/17 21:30:28;;;;;;;11.82;8.48;;;;;;;20.42;45.63;94047.19;4930516;28;20055;-65
2024/03/17 21:33:00;;;;;;;9.95;7.75;;;;;;;20.42;45.83;94041.78;4921488;28;20043;-65
2024/03/17 21:35:26;;;;;;;12.15;8.65;;;;;;;20.41;45.74;94039.44;4930714;28;20940;-64
2024/03/17 21:37:52;;;;;;;10.95;8.50;;;;;;;20.46;45.80;94041.81;4928106;28;20393;-65
2024/03/17 21:40:20;;;;;;;11.80;9.25;;;;;;;20.44;45.64;94039.47;4927733;28;20047;-65
2024/03/17 21:43:04;;;;;;;10.98;8.27;;;;;;;20.44;45.62;94034.06;4927448;28;20031;-65
2024/03/17 21:45:29;;;;;;;9.65;7.88;;;;;;;20.47;45.51;94048.78;4928354;28;20043;-65
2024/03/17 21:47:58;;;;;;;12.18;8.40;;;;;;;20.46;45.41;94045.28;4927895;28;20688;-65
2024/03/17 21:50:23;;;;;;;11.98;9.27;;;;;;;20.49;45.50;94038.34;4927498;28;20146;-65
2024/03/17 21:52:59;;;;;;;11.18;8.02;;;;;;;20.47;45.36;94046.84;4931150;28;20240;-64
2024/03/17 21:55:24;;;;;;;11.10;8.70;;;;;;;20.48;45.37;94037.56;4930683;28;20781;-65
2024/03/17 21:57:54;;;;;;;9.65;8.07;;;;;;;20.47;45.06;94038.75;4935096;28;20091;-65
2024/03/17 22:00:28;;;;;;;12.52;7.68;;;;;;;20.46;45.27;94039.88;4927132;28;20047;-66
2024/03/17 22:02:57;;;;;;;11.85;8.75;;;;;;;20.43;44.96;94046.03;4927248;28;20062;-65
2024/03/17 22:05:26;;;;;;;11.05;8.07;;;;;;;20.39;45.02;94031.69;4928877;28;20043;-65
2024/03/17 22:07:53;;;;;;;10.32;7.53;;;;;;;20.31;44.93;94024.66;4929305;28;20211;-65
2024/03/17 22:10:19;;;;;;;10.30;8.07;;;;;;;20.42;44.65;94041.78;4933175;28;20039;-65
2024/03/17 22:12:46;;;;;;;9.48;6.80;;;;;;;20.35;44.63;94025.47;4932591;28;20159;-65
2024/03/17 22:15:14;;;;;;;10.85;8.35;;;;;;;20.39;44.54;94037.09;4925001;28;20047;-65
2024/03/17 22:17:51;;;;;;;12.32;8.77;;;;;;;20.40;45.11;94033.25;4929310;28;20613;-65
2024/03/17 22:20:17;;;;;;;10.48;8.27;;;;;;;20.41;45.11;94034.81;4931797;28;20031;-65
2024/03/17 22:22:42;;;;;;;10.75;8.32;;;;;;;20.42;45.17;94028.28;4933937;28;20069;-65
2024/03/17 22:25:24;;;;;;;8.30;7.03;;;;;;;20.44;45.07;94027.88;4929150;28;20043;-66
2024/03/17 22:27:52;;;;;;;10.80;8.77;;;;;;;20.44;44.98;94020.56;4930408;28;20110;-65
2024/03/17 22:30:17;;;;;;;9.18;8.13;;;;;;;20.43;44.99;94019.03;4930493;28;20595;-65
2024/03/17 22:32:46;;;;;;;10.73;8.43;;;;;;;20.42;44.99;94022.88;4931604;28;20461;-66
2024/03/17 22:35:11;;;;;;;10.02;7.30;;;;;;;20.43;44.84;94020.94;4930969;28;20042;-65
2024/03/17 22:37:39;;;;;;;9.95;7.57;;;;;;;20.45;44.50;94022.13;4928373;28;21031;-65
2024/03/17 22:40:08;;;;;;;10.43;7.00;;;;;;;20.45;44.75;94022.13;4929441;28;20451;-65
2024/03/17 22:42:36;;;;;;;9.73;8.05;;;;;;;20.47;44.66;94016.34;4931564;28;20085;-65
2024/03/17 22:45:02;;;;;;;10.15;7.95;;;;;;;20.46;44.48;94020.97;4920511;28;21105;-65
2024/03/17 22:47:27;;;;;;;8.40;7.00;;;;;;;20.46;44.21;94020.97;4928796;28;20081;-66
2024/03/17 22:49:56;;;;;;;10.90;7.32;;;;;;;20.45;44.29;94022.13;4930858;28;20474;-65
2024/03/17 22:52:29;;;;;;;8.73;6.53;;;;;;;20.43;44.13;94019.03;4932084;28;20513;-65
2024/03/17 22:54:54;;;;;;;10.93;7.10;;;;;;;20.39;44.03;94015.47;4934276;28;20047;-66
2024/03/17 22:57:21;;;;;;;10.27;7.05;;;;;;;20.38;44.14;94013.94;4927023;28;20039;-66
2024/03/17 22:59:48;;;;;;;9.23;7.30;;;;;;;20.36;44.23;94010.84;4931854;28;20758;-65
2024/03/17 23:02:13;;;;;;;10.05;7.82;;;;;;;20.39;44.43;94004.69;4932118;28;20118;-66
2024/03/17 23:04:54;;;;;;;7.57;6.53;;;;;;;20.39;44.43;94010.09;4928235;28;20092;-65
2024/03/17 23:07:25;;;;;;;8.38;6.53;;;;;;;20.43;44.33;94002.81;4943447;28;21273;-65
2024/03/17 23:09:50;;;;;;;8.25;6.88;;;;;;;20.40;44.40;94003.53;4929872;28;20532;-65
2024/03/17 23:12:17;;;;;;;8.30;6.68;;;;;;;20.41;44.09;93996.22;4931947;28;20058;-66
2024/03/17 23:14:42;;;;;;;10.10;7.07;;;;;;;20.41;44.30;93997.00;4946858;28;20051;-65
2024/03/17 23:17:08;;;;;;;8.57;6.68;;;;;;;20.44;43.97;93995.47;4933865;28;20030;-66
2024/03/17 23:19:41;;;;;;;8.20;7.15;;;;;;;20.45;43.66;93997.81;4926866;28;20047;-66
2024/03/17 23:22:06;;;;;;;9.27;7.03;;;;;;;20.45;43.79;93994.31;4928846;28;20577;-66
2024/03/17 23:24:54;;;;;;;7.85;6.80;;;;;;;20.43;43.90;93993.94;4928814;28;20089;-66
2024/03/17 23:27:41;;;;;;;8.57;6.10;;;;;;;20.45;43.83;93992.41;4929327;28;20074;-66
2024/03/17 23:31:04;;;;;;;7.65;6.68;;;;;;;20.44;43.88;93990.84;4928983;28;20748;-65
2024/03/17 23:33:29;;;;;;;8.63;6.18;;;;;;;20.42;44.08;93998.56;4931928;28;20043;-65
2024/03/17 23:35:58;;;;;;;7.72;5.78;;;;;;;20.41;43.83;93980.78;4924284;28;20708;-65
2024/03/17 23:38:49;;;;;;;7.15;6.43;;;;;;;20.43;43.65;93980.44;4931382;28;20031;-64
2024/03/17 23:41:30;;;;;;;7.60;5.47;;;;;;;20.36;43.60;93991.94;4920333;28;20132;-65
2024/03/17 23:43:58;;;;;;;7.18;6.28;;;;;;;20.33;43.82;93984.56;4930562;28;20840;-65
2024/03/17 23:46:40;;;;;;;7.47;5.65;;;;;;;20.39;43.85;93982.28;4929521;28;20039;-65
2024/03/17 23:52:06;;;;;;;7.85;6.15;;;;;;;20.39;43.84;93964.16;4950003;28;20122;-66
2024/03/17 23:54:35;;;;;;;6.88;5.80;;;;;;;20.40;43.89;93973.81;4947281;28;21372;-65
2024/03/17 23:57:00;;;;;;;7.03;6.30;;;;;;;20.41;43.91;93969.97;4945592;28;20046;-65
2024/03/17 23:59:27;;;;;;;6.93;5.88;;;;;;;20.43;43.46;93969.63;4946363;28;20509;-66
